Hendersonville, NC

10:40 AM EST on November 26, 2014 (GMT -0500)
1450 7th Ave East Hendersonville NC | Change Station
CLOSE
Current Station
Personal Weather Station
Location: Hendersonville, NC
Elevation: 2100 ft
Nearby Weather Stations

Elev 2100 ft 35.33 °N, 82.45 °W | Updated 4 minutes ago

Overcast
Overcast
41.6 °F
Feels Like 42 °F
N
1.0
Wind Variable Wind from WNW
Gusts 6.0 mph

Today
High -- | Low -- °F
--% Chance of Precip.
Yesterday
High -- | Low -- °F
Precip. -- in
7:15 AM 5:18 PM
Waxing Crescent, 20% visible
Pressure 30.01 in
Visibility 10.0 miles
Clouds Mostly Cloudy 800 ft
Overcast 12000 ft
Windchill 42 °F
Dew Point 39 °F
Humidity 89%
Rainfall 0.51 in
Snow Depth Not available.
UV 1 out of 12
Pollen .30 out of 12
Air Quality Not available.
Flu Activity Not available.
SPECI KAVL 261511Z 35007KT 10SM BKN008 OVC120 06/03 A3001 RMK AO2 T00560028

More Conditions Fewer Conditions

Pressure 30.01 in
Visibility 10.0 miles
Clouds Mostly Cloudy 800 ft
Overcast 12000 ft
Windchill 42 °F
Dew Point 39 °F
Humidity 89%
Rainfall 0.51 in
Snow Depth Not available.
UV 1 out of 12
Pollen .30 out of 12
Air Quality Not available.
Flu Activity Not available.
SPECI KAVL 261511Z 35007KT 10SM BKN008 OVC120 06/03 A3001 RMK AO2 T00560028

More Conditions Fewer Conditions

10-Day Weather Forecast

Almanac

Astronomy

Nov. 26, 2014 Rise Set
Actual Time
Civil Twilight
Nautical Twilight
Astronomical Twilight
Moon
Length of Visible Light
Length of Day
Tomorrow will be .
, % of the Moon is Illuminated

Today's Extremes

State Highs State Lows

Community

WunderPhotos

Upload Photos

1,773,773 photos uploaded!

WunderBlogs® & News

Nearby

Air Quality

  Air Quality AQ Index Pollutant
Not available.

Snow Depth

Station Depth Elevation

Earthquake Activity

City Distance Mag. Time & Date
Minimum magnitude displayed is 2.5.

Coastal Water Temperatures

Place Temperature

Nearby Weather Stations